Latest Weather Observations for Wilkins Runway*

IDT60801

Issued at 5:02 am EDT Monday 23 January 2017 (issued every 30 minutes, with the page automatically refreshed every 10 minutes)

About weather observations | Map of weather stations | Latest weather observations for ANT | Other Formats
Station Details ID: 300050 Name: WILKINS RUNWAY EAST Lat: -66.68 Lon: 111.53 Height: 753.0 m
Data from the previous 72 hours. | See also: Recent months for locations in Antarctica
Date/Time
EDT
Temp
°C
App
Temp
°C
Dew
Point
°C
Rel
Hum
%
Delta-T
°C
Wind Press
QNH
hPa
Press
MSL
hPa
Rain since
9am
mm
Dir  Spd
km/h
Gust
km/h
Spd
kts
Gust
kts
23/04:30am -9.1 -19.1 -15.6 59 - E 35 44 19 24 989.2 - -
23/04:00am -8.0 -18.0 -15.6 54 - E 35 44 19 24 989.6 - -
23/03:30am -8.4 -19.9 -14.5 61 - E 43 52 23 28 989.8 - -
23/03:00am -7.6 -19.7 -14.8 56 - E 46 54 25 29 989.9 - -
23/02:30am -7.5 -20.0 -14.5 57 - E 48 61 26 33 990.2 - -
23/02:00am -7.4 -19.5 -14.0 59 - E 46 57 25 31 990.6 - -
23/01:30am -7.0 -19.4 -13.2 61 - E 48 59 26 32 990.8 - -
23/01:00am -6.9 -19.7 -12.9 62 - E 50 63 27 34 990.9 - -
23/12:37am -6.7 -19.8 -12.5 63 - E 52 70 28 38 990.8 - -
23/12:30am -6.8 -19.9 -12.1 66 - E 52 59 28 32 991.0 - -
23/12:00am -6.3 -19.4 -11.8 65 - E 52 63 28 34 991.2 - -
 
Date/Time
EDT
Temp
°C
App
Temp
°C
Dew
Point
°C
Rel
Hum
%
Delta-T
°C
Wind Press
QNH
hPa
Press
MSL
hPa
Rain since
9am
mm
Dir  Spd
km/h
Gust
km/h
Spd
kts
Gust
kts
22/11:30pm -5.6 -18.3 -11.9 61 - E 50 59 27 32 991.6 - -
22/11:15pm -5.4 -17.3 -11.7 61 - E 46 70 25 38 991.8 - -
22/11:00pm -5.2 -17.8 -10.9 64 - E 50 63 27 34 992.2 - -
22/10:30pm -4.8 -17.4 -10.5 64 - E 50 61 27 33 992.4 - -
22/10:00pm -4.6 -17.5 -10.0 66 - ESE 52 63 28 34 992.4 - -
22/09:30pm -4.3 -17.1 -8.6 72 - ESE 52 61 28 33 992.2 - -
22/09:00pm -4.1 -16.5 -8.0 74 - E 50 61 27 33 992.2 - -
22/08:30pm -4.0 -17.1 -7.9 74 - ESE 54 63 29 34 992.2 - -
22/08:00pm -4.0 -16.8 -8.3 72 - E 52 65 28 35 992.4 - -
22/07:30pm -3.8 -16.9 -7.2 77 - ESE 54 65 29 35 992.5 - -
22/07:14pm -3.5 -15.8 -6.8 78 - ESE 50 65 27 35 992.5 - -
22/07:06pm -3.5 -16.2 -6.9 77 - ESE 52 70 28 38 992.5 - -
22/07:00pm -3.5 -16.6 -7.1 76 - ESE 54 70 29 38 992.2 - -
22/06:58pm -3.5 -16.2 -7.1 76 - ESE 52 70 28 38 992.2 - -
22/06:30pm -3.2 -16.1 -5.7 83 - ESE 54 63 29 34 992.5 - -
22/06:00pm -3.4 -16.3 -5.7 84 - ESE 54 65 29 35 992.4 - -
22/05:30pm -3.2 -16.5 -5.8 82 - ESE 56 70 30 38 992.3 - -
22/05:22pm -2.9 -16.3 -6.2 78 - E 56 69 30 37 992.4 - -
22/05:00pm -2.8 -15.0 -6.4 76 - ESE 50 65 27 35 992.3 - -
22/04:31pm -3.0 -16.4 -6.6 76 - ESE 56 78 30 42 992.2 - -
22/04:30pm -3.0 -16.4 -6.8 75 - ESE 56 78 30 42 992.1 - -
22/04:20pm -2.9 -14.4 -6.9 74 - ESE 46 69 25 37 991.9 - -
22/04:19pm -2.9 -13.1 -6.9 74 - ESE 39 52 21 28 992.2 - -
22/04:18pm -2.9 -16.9 -6.9 74 - E 59 85 32 46 992.5 - -
22/04:10pm -3.0 -17.4 -7.0 74 - E 61 80 33 43 991.4 - -
22/04:00pm -2.8 -16.4 -6.6 75 - E 57 72 31 39 991.7 - -
22/03:30pm -2.5 -15.9 -6.3 75 - E 56 80 30 43 991.8 - -
22/03:24pm -2.6 -15.6 -6.6 74 - E 54 78 29 42 991.2 - -
22/03:23pm -2.6 -14.1 -6.4 75 - E 46 59 25 32 991.6 - -
22/03:19pm -2.7 -18.6 -6.7 74 - E 69 76 37 41 991.4 - -
22/03:11pm -2.8 -13.9 -6.6 75 - ESE 44 65 24 35 991.6 - -
22/03:10pm -2.7 -12.9 -6.5 75 - ESE 39 52 21 28 991.8 - -
22/03:00pm -2.8 -17.2 -6.9 73 - E 61 70 33 38 991.5 - -
22/02:30pm -3.0 -17.3 -6.4 77 - E 61 80 33 43 991.0 - -
22/02:00pm -3.3 -17.7 -7.1 75 - E 61 83 33 45 991.2 - -
22/01:30pm -3.6 -18.8 -7.0 77 - E 65 83 35 45 990.9 - -
22/01:27pm -3.6 -18.8 -7.2 76 - E 65 83 35 45 991.0 - -
22/01:00pm -3.6 -18.4 -7.2 76 - E 63 78 34 42 990.8 - -
22/12:30pm -3.7 -19.3 -7.6 74 - E 67 93 36 50 990.4 - -
22/12:05pm -4.0 -19.2 -7.8 75 - E 65 89 35 48 990.1 - -
22/12:00pm -3.9 -19.1 -7.7 75 - E 65 80 35 43 990.9 - -
22/11:30am -3.8 -20.0 -7.7 74 - E 70 82 38 44 990.3 - -
22/11:00am -4.0 -20.9 -7.4 77 - E 74 85 40 46 990.0 - -
22/10:30am -4.0 -22.0 -7.3 78 - E 80 93 43 50 989.7 - -
22/10:00am -3.9 -20.8 -7.5 76 - E 74 85 40 46 989.9 - -
22/09:30am -4.2 -21.0 -6.8 82 - E 74 85 40 46 989.7 - -
22/09:00am -4.1 -21.7 -7.0 80 - E 78 89 42 48 989.6 - -
22/08:30am -4.2 -22.2 -7.0 81 - E 80 89 43 48 988.7 - -
22/08:00am -3.8 -23.1 -7.1 78 - E 87 98 47 53 988.2 - -
22/07:30am -4.0 -21.6 -6.8 81 - E 78 91 42 49 988.5 - -
22/07:00am -4.1 -21.0 -6.9 81 - E 74 85 40 46 988.6 - -
22/06:30am -4.0 -21.2 -6.8 81 - E 76 87 41 47 988.8 - -
22/06:00am -3.8 -20.6 -6.7 80 - E 74 85 40 46 988.9 - -
22/05:30am -3.9 -20.7 -6.7 81 - E 74 82 40 44 988.8 - -
22/05:00am -3.9 -20.3 -6.5 82 - E 72 80 39 43 988.5 - -
22/04:30am -4.1 -20.1 -6.4 84 - E 70 87 38 47 988.6 - -
22/04:00am -4.2 -21.0 -6.2 86 - E 74 87 40 47 987.4 - -
22/03:30am -3.9 -21.4 -6.0 85 - E 78 89 42 48 986.9 - -
22/03:00am -4.0 -20.8 -6.1 85 - E 74 85 40 46 987.0 - -
22/02:30am -4.0 -20.8 -6.0 86 - E 74 85 40 46 986.7 - -
22/02:00am -3.9 -20.3 -5.9 86 - E 72 87 39 47 986.6 - -
22/01:30am -3.9 -20.3 -6.0 85 - ESE 72 82 39 44 986.9 - -
22/01:00am -3.9 -21.4 -6.2 84 - ESE 78 93 42 50 986.8 - -
22/12:30am -3.8 -22.7 -6.1 84 - E 85 95 46 51 985.9 - -
22/12:00am -3.9 -23.5 -6.0 85 - E 89 104 48 56 985.6 - -
 
Date/Time
EDT
Temp
°C
App
Temp
°C
Dew
Point
°C
Rel
Hum
%
Delta-T
°C
Wind Press
QNH
hPa
Press
MSL
hPa
Rain since
9am
mm
Dir  Spd
km/h
Gust
km/h
Spd
kts
Gust
kts
21/11:30pm -3.7 -22.9 -5.8 85 - E 87 98 47 53 985.4 - -
21/11:00pm -3.9 -23.1 -5.9 86 - E 87 100 47 54 985.4 - -
21/10:30pm -3.8 -23.4 -6.1 84 - E 89 100 48 54 985.3 - -
21/10:00pm -3.5 -22.7 -6.0 83 - E 87 98 47 53 985.5 - -
21/09:30pm -3.4 -23.4 -5.7 84 - E 91 100 49 54 985.0 - -
21/09:00pm -3.4 -23.4 -5.9 83 - E 91 102 49 55 985.0 - -
21/08:30pm -3.2 -22.1 -6.0 81 - E 85 96 46 52 985.4 - -
21/08:00pm -3.0 -22.2 -5.6 82 - E 87 98 47 53 985.4 - -
21/07:34pm -3.0 -21.4 -5.3 84 - E 83 95 45 51 985.3 - -
21/07:30pm -3.1 -21.5 -5.3 85 - E 83 95 45 51 985.3 - -
21/07:00pm -3.4 -22.2 -5.4 86 - E 85 98 46 53 984.6 - -
21/06:31pm -3.4 -19.7 -5.2 87 - ESE 72 91 39 49 985.4 - -
21/06:30pm -3.5 -19.8 -5.3 87 - ESE 72 85 39 46 985.3 - -
21/06:00pm -3.4 -21.8 -5.2 87 - E 83 100 45 54 984.5 - -
21/05:56pm -3.3 -22.8 -5.1 87 - E 89 107 48 58 984.3 - -
21/05:53pm -3.4 -23.3 -5.2 87 - E 91 107 49 58 984.0 - -
21/05:00pm -3.4 -25.8 -5.1 88 - E 104 119 56 64 980.8 - -
21/04:30pm -3.4 -25.8 -4.9 89 - E 104 119 56 64 980.8 - -
21/04:10pm -3.4 -25.4 -4.9 89 - E 102 122 55 66 980.3 - -
21/04:00pm -3.4 -25.8 -4.9 89 - E 104 120 56 65 980.5 - -
21/03:44pm -3.4 -25.4 -4.9 89 - E 102 120 55 65 980.0 - -
21/03:30pm -3.4 -25.0 -4.9 89 - E 100 113 54 61 980.4 - -
21/03:00pm -3.5 -24.7 -5.0 89 - E 98 113 53 61 980.7 - -
21/02:46pm -3.4 -24.1 -5.2 87 - E 95 113 51 61 981.0 - -
21/02:30pm -3.5 -24.7 -5.2 88 - E 98 111 53 60 980.9 - -
21/02:00pm -3.5 -24.2 -5.3 87 - E 95 109 51 59 981.4 - -
21/01:38pm -3.6 -24.5 -5.4 87 - E 96 115 52 62 980.7 - -
21/01:30pm -3.6 -24.5 -5.4 87 - E 96 106 52 57 981.1 - -
21/01:00pm -3.6 -25.2 -5.4 87 - E 100 117 54 63 980.9 - -
21/12:30pm -3.7 -25.0 -5.4 88 - E 98 113 53 61 980.9 - -
21/12:00pm -3.9 -24.8 -5.6 88 - E 96 113 52 61 981.2 - -
21/11:30am -4.1 -24.4 -5.6 89 - E 93 104 50 56 981.4 - -
21/11:21am -4.1 -24.1 -5.8 88 - E 91 109 49 59 981.5 - -
21/11:00am -4.1 -25.0 -5.8 88 - E 96 109 52 59 981.3 - -
21/10:46am -4.2 -24.2 -5.9 88 - E 91 104 49 56 981.4 - -
21/10:30am -4.3 -24.7 -6.0 88 - E 93 106 50 57 981.3 - -
21/10:00am -4.5 -24.5 -6.2 88 - E 91 106 49 57 981.8 - -
21/09:30am -4.5 -25.5 -6.2 88 - E 96 111 52 60 981.1 - -
21/09:00am -4.7 -27.2 -6.2 89 - E 104 117 56 63 979.9 - -
21/08:53am -4.8 -27.9 -6.3 89 - E 107 122 58 66 979.5 - -
21/08:30am -4.5 -30.8 -6.0 89 - E 124 143 67 77 977.5 - -
21/08:16am -4.7 -32.5 -5.9 91 - E 132 150 71 81 975.6 - -
21/08:12am -4.8 -32.6 -6.0 91 - E 132 143 71 77 975.5 - -
21/08:03am -4.9 -28.7 -6.1 91 - E 111 137 60 74 975.9 - -
21/08:00am -4.9 -28.3 -6.1 91 - E 109 126 59 68 977.0 - -
21/07:50am -4.9 -27.8 -6.1 91 - E 106 126 57 68 977.7 - -
21/07:30am -5.0 -27.9 -6.2 91 - E 106 120 57 65 978.2 - -
21/07:06am -5.0 -27.1 -6.4 90 - E 102 120 55 65 978.9 - -
21/07:00am -5.0 -27.1 -6.4 90 - E 102 117 55 63 978.6 - -
21/06:35am -4.9 -27.8 -6.4 89 - E 106 128 57 69 978.3 - -
21/06:30am -4.9 -27.8 -6.3 90 - E 106 120 57 65 978.4 - -
21/06:09am -5.0 -28.8 -6.2 91 - E 111 132 60 71 977.4 - -
21/06:00am -5.0 -27.5 -6.2 91 - E 104 117 56 63 978.0 - -
21/05:54am -5.0 -26.3 -6.2 91 - ESE 98 117 53 63 978.3 - -
21/05:32am -5.0 -25.8 -6.8 87 - ESE 95 113 51 61 980.3 - -
21/05:31am -5.2 -24.5 -6.7 89 - ESE 87 106 47 57 980.4 - -
21/05:30am -5.1 -24.8 -6.8 88 - ESE 89 106 48 57 980.7 - -
21/05:18am -5.0 -26.4 -6.5 89 - ESE 98 117 53 63 979.4 - -
21/05:10am -5.0 -26.4 -6.5 89 - ESE 98 117 53 63 979.4 - -
21/05:07am -5.1 -26.1 -6.5 90 - ESE 96 109 52 59 980.0 - -
21/05:02am -5.1 -21.9 -6.5 90 - ESE 74 95 40 51 980.8 - -
21/05:00am -5.1 -21.5 -6.5 90 - ESE 72 109 39 59 980.0 - -
21/04:59am -5.1 -26.1 -6.5 90 - ESE 96 109 52 59 980.0 - -
21/04:56am -5.0 -22.6 -6.4 90 - ESE 78 100 42 54 980.5 - -
21/04:49am -5.1 -21.2 -6.6 89 - ESE 70 89 38 48 982.6 - -
21/04:41am -5.1 -21.2 -6.6 89 - ESE 70 89 38 48 982.6 - -
21/04:30am -4.9 -22.9 -6.6 88 - ESE 80 95 43 51 982.2 - -
21/04:10am -4.7 -24.0 -6.4 88 - ESE 87 106 47 57 981.8 - -
21/04:02am -4.7 -24.0 -6.4 88 - ESE 87 106 47 57 981.8 - -
21/04:00am -4.8 -24.1 -6.6 87 - ESE 87 102 47 55 982.0 - -
21/03:54am -4.8 -21.2 -6.5 88 - ESE 72 100 39 54 981.8 - -
21/03:50am -4.8 -19.6 -6.8 86 - ESE 63 85 34 46 983.1 - -
21/03:33am -4.5 -22.9 -6.9 83 - ESE 82 100 44 54 983.0 - -
21/03:30am -4.4 -23.4 -7.0 82 - ESE 85 100 46 54 983.1 - -
21/03:18am -4.5 -22.8 -6.6 85 - ESE 82 102 44 55 982.6 - -
21/03:00am -4.6 -24.3 -6.7 85 - ESE 89 106 48 57 982.4 - -
21/02:42am -4.7 -23.6 -6.5 87 - ESE 85 106 46 57 983.1 - -
21/02:36am -4.8 -23.7 -6.5 88 - ESE 85 98 46 53 982.6 - -
21/02:34am -4.7 -23.6 -6.5 87 - ESE 85 106 46 57 983.1 - -
21/02:30am -4.8 -24.1 -6.5 88 - ESE 87 98 47 53 983.2 - -
21/02:29am -4.9 -18.0 -6.9 86 - ESE 54 85 29 46 983.9 - -
21/02:28am -4.8 -24.1 -6.5 88 - ESE 87 98 47 53 982.6 - -
21/02:22am -4.9 -19.3 -6.7 87 - ESE 61 91 33 49 983.3 - -
21/02:21am -4.9 -18.0 -6.9 86 - ESE 54 63 29 34 983.9 - -
21/02:00am -4.5 -22.1 -7.1 82 - ESE 78 89 42 48 984.0 - -
21/01:30am -4.5 -22.1 -6.8 84 - ESE 78 89 42 48 984.1 - -
21/01:00am -4.6 -23.0 -6.7 85 - ESE 82 93 44 50 983.8 - -
21/12:30am -4.5 -25.3 -6.8 84 - ESE 95 106 51 57 983.2 - -
21/12:09am -4.8 -23.3 -6.5 88 - E 83 104 45 56 983.0 - -
21/12:01am -4.8 -23.7 -6.5 88 - E 85 104 46 56 983.0 - -
21/12:00am -4.7 -23.2 -6.4 88 - E 83 100 45 54 983.0 - -
 
Date/Time
EDT
Temp
°C
App
Temp
°C
Dew
Point
°C
Rel
Hum
%
Delta-T
°C
Wind Press
QNH
hPa
Press
MSL
hPa
Rain since
9am
mm
Dir  Spd
km/h
Gust
km/h
Spd
kts
Gust
kts
20/11:30pm -4.8 -22.0 -6.5 88 - E 76 87 41 47 984.2 - -
20/11:00pm -4.5 -20.0 -6.5 86 - E 67 87 36 47 984.6 - -
20/10:30pm -4.6 -21.0 -6.4 87 - E 72 85 39 46 984.7 - -
20/10:00pm -4.6 -23.5 -6.4 87 - E 85 98 46 53 983.6 - -
20/09:30pm -4.5 -25.3 -6.3 87 - E 95 107 51 58 982.5 - -
20/09:00pm -4.3 -25.2 -6.0 88 - E 96 109 52 59 981.3 - -
20/08:35pm -4.3 -25.6 -6.1 87 - E 98 120 53 65 981.1 - -
20/08:30pm -4.4 -25.7 -5.9 89 - E 98 120 53 65 981.4 - -
20/08:00pm -4.3 -25.6 -6.0 88 - E 98 115 53 62 981.1 - -
20/07:30pm -4.5 -24.1 -6.2 88 - ESE 89 124 48 67 981.0 - -
20/07:25pm -4.3 -23.2 -6.0 88 - E 85 122 46 66 981.3 - -
20/07:23pm -4.3 -22.6 -6.0 88 - E 82 122 44 66 981.7 - -
20/07:20pm -4.4 -25.4 -6.2 87 - E 96 117 52 63 982.2 - -
20/07:19pm -4.3 -27.1 -6.0 88 - E 106 117 57 63 981.9 - -
20/07:17pm -4.3 -22.8 -6.0 88 - E 83 104 45 56 981.3 - -
20/07:15pm -4.3 -22.6 -6.0 88 - E 82 96 44 52 981.7 - -
20/07:11pm -4.2 -26.3 -6.0 87 - E 102 135 55 73 981.2 - -
20/07:07pm -4.1 -28.6 -5.8 88 - E 115 135 62 73 982.2 - -
20/07:05pm -4.4 -21.2 -6.1 88 - ESE 74 132 40 71 981.6 - -
20/07:03pm -4.2 -26.3 -6.0 87 - E 102 120 55 65 981.2 - -
20/07:01pm -4.2 -20.0 -6.2 86 - ESE 69 106 37 57 982.3 - -
20/07:00pm -4.0 -26.1 -6.3 84 - E 102 135 55 73 982.4 - -
20/06:59pm -4.1 -28.6 -5.8 88 - E 115 135 62 73 982.2 - -
20/06:58pm -4.4 -23.3 -5.9 89 - E 85 133 46 72 980.4 - -
20/06:55pm -4.3 -23.2 -6.1 87 - E 85 113 46 61 982.6 - -
20/06:53pm -4.4 -27.8 -5.9 89 - E 109 132 59 71 981.6 - -
20/06:52pm -4.4 -24.0 -6.1 88 - E 89 132 48 71 980.5 - -
20/06:51pm -4.4 -22.3 -6.2 87 - E 80 104 43 56 981.5 - -
20/06:50pm -4.3 -26.4 -6.1 87 - E 102 126 55 68 982.3 - -
20/06:49pm -4.3 -28.5 -6.0 88 - E 113 126 61 68 982.2 - -
20/06:30pm -4.5 -23.8 -6.2 88 - E 87 117 47 63 982.2 - -
20/06:24pm -4.5 -20.9 -6.2 88 - ESE 72 120 39 65 982.4 - -
20/06:22pm -4.4 -26.5 -6.2 87 - ESE 102 120 55 65 982.9 - -
20/06:13pm -4.5 -23.0 -6.2 88 - E 83 120 45 65 981.6 - -
20/06:12pm -4.5 -20.5 -6.2 88 - E 70 96 38 52 981.9 - -
20/06:10pm -4.1 -24.2 -6.7 82 - ESE 91 130 49 70 982.9 - -
20/06:09pm -4.2 -27.6 -6.2 86 - E 109 130 59 70 983.2 - -
20/06:02pm -4.1 -24.2 -6.7 82 - ESE 91 130 49 70 982.9 - -
20/06:01pm -4.2 -27.6 -6.2 86 - E 109 130 59 70 983.2 - -
20/06:00pm -4.5 -22.8 -6.2 88 - ESE 82 130 44 70 981.5 - -
20/05:56pm -4.5 -18.8 -6.5 86 - ESE 61 107 33 58 983.0 - -
20/05:46pm -4.4 -22.0 -6.4 86 - ESE 78 107 42 58 983.3 - -
20/05:41pm -4.4 -22.9 -6.5 85 - E 83 102 45 55 983.2 - -
20/05:39pm -4.5 -23.4 -6.6 85 - E 85 100 46 54 982.5 - -
20/05:30pm -4.4 -23.3 -6.8 83 - E 85 107 46 58 982.8 - -
20/05:23pm -4.5 -23.8 -6.8 84 - E 87 117 47 63 982.9 - -
20/05:15pm -4.5 -23.8 -6.8 84 - E 87 117 47 63 982.9 - -
20/05:14pm -4.6 -23.5 -6.4 87 - E 85 117 46 63 981.9 - -
20/05:00pm -4.9 -22.9 -6.9 86 - ESE 80 98 43 53 983.1 - -
20/04:30pm -5.0 -22.3 -7.1 85 - ESE 76 96 41 52 983.1 - -

Other Formats:

Comma delimited format used in spreadsheet applications
http://www.bom.gov.au/fwo/IDT60803/IDT60803.89615.axf

JavaScript Object Notation format (JSON) in row-major order
http://www.bom.gov.au/fwo/IDT60803/IDT60803.89615.json